createdAt,value
2022-11-29T00:00:06.893Z,101574.09
2022-11-29T00:03:35.941Z,101572.47
2022-11-29T00:06:57.631Z,101568.97
2022-11-29T00:10:19.967Z,101569.91
2022-11-29T00:13:42.295Z,101579.47
2022-11-29T00:17:04.554Z,101576.88
2022-11-29T00:20:29.813Z,101579.63
2022-11-29T00:23:51.788Z,101576.19
2022-11-29T00:27:14.013Z,101576.97
2022-11-29T00:30:35.978Z,101571.75
2022-11-29T00:33:59.102Z,101572.53
2022-11-29T00:37:22.485Z,101571.59
2022-11-29T00:40:44.114Z,101575.97
2022-11-29T00:44:05.995Z,101564.63
2022-11-29T00:47:28.050Z,101554.94
2022-11-29T00:50:50.226Z,101557.63
2022-11-29T00:54:13.745Z,101554.06
2022-11-29T00:57:35.393Z,101547.94
2022-11-29T01:00:57.694Z,101555.78
2022-11-29T01:04:20.826Z,101560.38
2022-11-29T01:07:42.680Z,101565.56
2022-11-29T01:11:08.821Z,101563.78
2022-11-29T01:14:30.753Z,101561.97
2022-11-29T01:17:53.451Z,101565.56
2022-11-29T01:21:16.592Z,101562.22
2022-11-29T01:24:38.217Z,101566.63
2022-11-29T01:28:01.455Z,101561.34
2022-11-29T01:31:25.418Z,101563.16
2022-11-29T01:34:47.180Z,101562.28
2022-11-29T01:38:08.946Z,101564.91
2022-11-29T01:41:32.673Z,101571.06
2022-11-29T01:45:15.035Z,101568.47
2022-11-29T01:48:36.639Z,101566.78
2022-11-29T01:52:02.107Z,101563.41
2022-11-29T01:55:23.653Z,101564.28
2022-11-29T01:58:46.590Z,101561.66
2022-11-29T02:02:14.555Z,101568.78
2022-11-29T02:05:37.841Z,101563.41
2022-11-29T02:08:59.611Z,101564.28
2022-11-29T02:12:28.518Z,101559.94
2022-11-29T02:16:00.444Z,101564.28
2022-11-29T02:19:46.504Z,101561.56
2022-11-29T02:23:27.823Z,101562.44
2022-11-29T02:27:04.009Z,101565.06
2022-11-29T02:30:49.377Z,101565.13
2022-11-29T02:34:39.183Z,101567.75
2022-11-29T02:38:22.054Z,101568.63
2022-11-29T02:41:57.174Z,101577.38
2022-11-29T02:45:37.259Z,101572.13
2022-11-29T02:49:05.339Z,101577.38
2022-11-29T02:52:36.338Z,101579.19
2022-11-29T02:56:05.634Z,101580.91
2022-11-29T02:59:41.033Z,101587.09
2022-11-29T03:03:09.462Z,101582.75
2022-11-29T03:06:37.766Z,101586.38
2022-11-29T03:10:06.919Z,101592.53
2022-11-29T03:13:44.472Z,101587.16
2022-11-29T03:17:14.978Z,101596.88
2022-11-29T03:20:46.603Z,101593.22
2022-11-29T03:24:13.212Z,101593.31
2022-11-29T03:27:43.180Z,101595.16
2022-11-29T03:31:11.755Z,101596.00
2022-11-29T03:34:46.579Z,101597.88
2022-11-29T03:38:17.271Z,101592.53
2022-11-29T03:41:44.791Z,101600.44
2022-11-29T03:45:15.615Z,101606.78
2022-11-29T03:48:41.742Z,101604.94
2022-11-29T03:52:13.303Z,101605.72
2022-11-29T03:55:50.327Z,101601.38
2022-11-29T03:59:24.363Z,101611.94
2022-11-29T04:03:20.109Z,101601.38
2022-11-29T04:06:57.722Z,101603.09
2022-11-29T04:10:35.471Z,101613.56
2022-11-29T04:14:39.165Z,101607.44
2022-11-29T04:18:34.042Z,101604.78
2022-11-29T04:22:18.193Z,101611.78
2022-11-29T04:26:20.384Z,101603.88
2022-11-29T04:30:09.147Z,101614.28
2022-11-29T04:33:56.394Z,101609.06
2022-11-29T04:37:46.336Z,101624.03
2022-11-29T04:41:20.426Z,101619.59
2022-11-29T04:44:55.437Z,101618.78
2022-11-29T04:48:43.685Z,101625.75
2022-11-29T04:52:24.495Z,101623.19
2022-11-29T04:55:53.626Z,101624.88
2022-11-29T04:59:22.090Z,101625.75
2022-11-29T05:02:55.240Z,101631.03
2022-11-29T05:06:28.852Z,101632.75
2022-11-29T05:10:01.704Z,101634.50
2022-11-29T05:13:32.526Z,101634.50
2022-11-29T05:17:01.473Z,101641.44
2022-11-29T05:20:33.621Z,101644.22
2022-11-29T05:24:04.358Z,101648.53
2022-11-29T05:27:38.445Z,101646.78
2022-11-29T05:31:30.650Z,101654.66
2022-11-29T05:35:09.209Z,101660.78
2022-11-29T05:39:08.656Z,101664.28
2022-11-29T05:42:51.992Z,101667.84
2022-11-29T05:46:23.747Z,101671.47
2022-11-29T05:49:55.437Z,101675.81
2022-11-29T05:53:23.507Z,101681.97
2022-11-29T05:56:54.159Z,101688.91
2022-11-29T06:00:19.623Z,101681.91
2022-11-29T06:03:54.445Z,101682.75
2022-11-29T06:07:21.771Z,101687.09
2022-11-29T06:10:57.707Z,101691.59
2022-11-29T06:14:42.894Z,101689.75
2022-11-29T06:18:19.448Z,101695.88
2022-11-29T06:21:51.876Z,101694.09
2022-11-29T06:25:30.707Z,101698.38
2022-11-29T06:29:02.888Z,101707.28
2022-11-29T06:32:34.139Z,101710.78
2022-11-29T06:36:17.093Z,101704.59
2022-11-29T06:39:41.056Z,101709.00
2022-11-29T06:43:02.967Z,101712.56
2022-11-29T06:46:34.613Z,101720.47
2022-11-29T06:50:02.662Z,101716.84
2022-11-29T06:53:33.478Z,101722.94
2022-11-29T06:57:02.520Z,101724.78
2022-11-29T07:00:27.089Z,101722.84
2022-11-29T07:04:07.871Z,101732.69
2022-11-29T07:07:31.308Z,101731.78
2022-11-29T07:10:55.650Z,101736.13
2022-11-29T07:14:19.828Z,101736.97
2022-11-29T07:17:55.675Z,101742.38
2022-11-29T07:21:31.341Z,101744.03
2022-11-29T07:25:03.106Z,101749.31
2022-11-29T07:28:38.849Z,101752.94
2022-11-29T07:32:11.730Z,101754.66
2022-11-29T07:35:40.019Z,101761.66
2022-11-29T07:39:14.771Z,101758.16
2022-11-29T07:42:48.508Z,101763.50
2022-11-29T07:46:10.701Z,101772.28
2022-11-29T07:49:34.117Z,101773.22
2022-11-29T07:52:57.805Z,101772.28
2022-11-29T07:56:19.546Z,101777.56
2022-11-29T07:59:41.235Z,101788.03
2022-11-29T08:03:02.728Z,101785.47
2022-11-29T08:06:27.621Z,101789.84
2022-11-29T08:09:49.321Z,101782.63
2022-11-29T08:13:11.010Z,101787.06
2022-11-29T08:16:33.128Z,101784.34
2022-11-29T08:19:54.782Z,101785.22
2022-11-29T08:23:18.389Z,101779.97
2022-11-29T08:26:40.271Z,101789.63
2022-11-29T08:30:02.304Z,101796.56
2022-11-29T08:33:24.311Z,101796.59
2022-11-29T08:36:46.347Z,101793.03
2022-11-29T08:40:11.088Z,101794.75
2022-11-29T08:43:33.599Z,101796.47
2022-11-29T08:47:12.714Z,101795.53
2022-11-29T08:50:34.332Z,101798.19
2022-11-29T08:53:56.231Z,101809.75
2022-11-29T09:01:01.148Z,101812.31
2022-11-29T09:04:23.063Z,101814.03
2022-11-29T09:07:46.428Z,101813.09
2022-11-29T09:11:13.612Z,101821.00
2022-11-29T09:14:37.010Z,101826.19
2022-11-29T09:17:58.920Z,101819.91
2022-11-29T09:21:20.638Z,101822.47
2022-11-29T09:24:42.698Z,101827.03
2022-11-29T09:28:04.910Z,101831.31
2022-11-29T09:31:29.237Z,101829.66
2022-11-29T09:34:51.108Z,101827.81
2022-11-29T09:38:13.566Z,101829.63
2022-11-29T09:41:49.807Z,101840.19
2022-11-29T09:45:18.519Z,101843.53
2022-11-29T09:48:58.667Z,101835.53
2022-11-29T09:52:30.676Z,101836.34
2022-11-29T09:56:06.131Z,101833.69
2022-11-29T09:59:33.491Z,101836.34
2022-11-29T10:03:01.886Z,101831.19
2022-11-29T10:06:29.194Z,101839.91
2022-11-29T10:09:56.496Z,101835.59
2022-11-29T10:13:23.289Z,101846.94
2022-11-29T10:16:51.912Z,101837.41
2022-11-29T10:20:18.095Z,101838.25
2022-11-29T10:23:44.923Z,101832.91
2022-11-29T10:27:15.233Z,101838.09
2022-11-29T10:30:37.833Z,101845.88
2022-11-29T10:34:02.494Z,101850.31
2022-11-29T10:37:25.795Z,101843.19
2022-11-29T10:40:52.610Z,101844.16
2022-11-29T10:44:16.309Z,101846.91
2022-11-29T10:47:37.995Z,101840.75
2022-11-29T10:51:00.474Z,101848.59
2022-11-29T10:54:31.122Z,101851.16
2022-11-29T10:58:12.708Z,101849.41
2022-11-29T11:01:40.170Z,101851.84
2022-11-29T11:05:02.976Z,101846.63
2022-11-29T11:08:26.214Z,101842.19
2022-11-29T11:11:52.991Z,101842.06
2022-11-29T11:15:28.833Z,101846.34
2022-11-29T11:18:50.492Z,101851.34
2022-11-29T11:22:23.047Z,101849.44
2022-11-29T11:25:44.776Z,101854.63
2022-11-29T11:29:06.305Z,101847.56
2022-11-29T11:32:30.147Z,101848.31
2022-11-29T11:36:10.840Z,101847.28
2022-11-29T11:39:33.474Z,101850.66
2022-11-29T11:42:57.570Z,101850.53
2022-11-29T11:46:19.627Z,101857.38
2022-11-29T11:49:50.934Z,101844.94
2022-11-29T11:53:22.396Z,101856.38
2022-11-29T11:56:45.143Z,101858.16
2022-11-29T12:00:08.326Z,101863.25
2022-11-29T12:03:49.215Z,101864.03
2022-11-29T12:07:19.006Z,101862.19
2022-11-29T12:10:41.508Z,101864.69
2022-11-29T12:14:05.486Z,101869.88
2022-11-29T12:17:34.563Z,101869.81
2022-11-29T12:21:01.500Z,101873.31
2022-11-29T12:24:29.167Z,101869.66
2022-11-29T12:27:51.230Z,101875.78
2022-11-29T12:31:28.889Z,101870.47
2022-11-29T12:35:18.785Z,101870.41
2022-11-29T12:39:01.140Z,101885.38
2022-11-29T12:42:36.681Z,101880.88
2022-11-29T12:46:06.246Z,101885.19
2022-11-29T12:49:35.596Z,101884.25
2022-11-29T12:53:11.718Z,101883.25
2022-11-29T12:56:38.476Z,101894.69
2022-11-29T13:00:11.047Z,101898.25
2022-11-29T13:03:41.462Z,101903.44
2022-11-29T13:07:10.274Z,101899.03
2022-11-29T13:10:48.666Z,101895.53
2022-11-29T13:14:41.497Z,101898.25
2022-11-29T13:18:05.879Z,101890.31
2022-11-29T13:21:33.495Z,101899.09
2022-11-29T13:24:58.812Z,101903.53
2022-11-29T13:28:26.539Z,101899.34
2022-11-29T13:31:49.905Z,101896.53
2022-11-29T13:35:34.134Z,101890.47
2022-11-29T13:39:06.914Z,101900.16
2022-11-29T13:42:38.295Z,101912.47
2022-11-29T13:46:09.388Z,101916.97
2022-11-29T13:49:53.822Z,101919.69
2022-11-29T13:53:19.183Z,101928.56
2022-11-29T13:56:47.040Z,101925.09
2022-11-29T14:00:28.830Z,101929.47
2022-11-29T14:04:04.743Z,101922.34
2022-11-29T14:07:26.683Z,101926.69
2022-11-29T14:10:51.994Z,101921.47
2022-11-29T14:14:23.809Z,101929.41
2022-11-29T14:17:52.723Z,101925.91
2022-11-29T14:21:14.658Z,101926.84
2022-11-29T14:24:41.143Z,101926.84
2022-11-29T14:28:26.236Z,101933.84
2022-11-29T14:31:56.147Z,101937.31
2022-11-29T14:35:24.862Z,101933.75
2022-11-29T14:38:53.942Z,101940.84
2022-11-29T14:42:18.870Z,101942.69
2022-11-29T14:45:42.154Z,101951.59
2022-11-29T14:49:05.622Z,101952.44
2022-11-29T14:52:33.635Z,101951.53
2022-11-29T14:56:45.825Z,101952.41
2022-11-29T15:00:12.625Z,101953.13
2022-11-29T15:03:49.606Z,101952.34
2022-11-29T15:07:19.080Z,101951.47
2022-11-29T15:10:46.292Z,101957.72
2022-11-29T15:14:16.960Z,101959.44
2022-11-29T15:17:50.870Z,101964.88
2022-11-29T15:21:25.897Z,101966.59
2022-11-29T15:24:59.145Z,101963.25
2022-11-29T15:28:25.110Z,101973.88
2022-11-29T15:31:50.863Z,101977.38
2022-11-29T15:35:18.194Z,101980.09
2022-11-29T15:38:47.163Z,101981.16
2022-11-29T15:42:12.615Z,101980.16
2022-11-29T15:45:36.933Z,101992.59
2022-11-29T15:49:17.981Z,101995.38
2022-11-29T15:52:40.044Z,101995.25
2022-11-29T15:56:05.803Z,102000.66
2022-11-29T15:59:34.983Z,102012.06
2022-11-29T16:03:01.067Z,102019.94
2022-11-29T16:06:28.855Z,102012.84
2022-11-29T16:09:55.126Z,102024.22
2022-11-29T16:13:38.068Z,102019.88
2022-11-29T16:17:03.405Z,102020.78
2022-11-29T16:20:29.885Z,102022.63
2022-11-29T16:23:52.022Z,102030.69
2022-11-29T16:27:14.961Z,102023.66
2022-11-29T16:30:43.175Z,102028.06
2022-11-29T16:34:09.125Z,102031.63
2022-11-29T16:37:37.557Z,102034.31
2022-11-29T16:41:05.156Z,102036.19
2022-11-29T16:45:14.551Z,102038.03
2022-11-29T16:48:38.698Z,102035.38
2022-11-29T16:52:00.482Z,102043.41
2022-11-29T16:55:22.304Z,102050.41
2022-11-29T16:59:16.954Z,102048.69
2022-11-29T17:02:30.828Z,102054.88
2022-11-29T17:05:54.091Z,102053.16
2022-11-29T17:09:23.197Z,102059.44
2022-11-29T17:12:48.223Z,102064.78
2022-11-29T17:16:14.556Z,102065.72
2022-11-29T17:19:36.598Z,102063.00
2022-11-29T17:23:02.489Z,102062.19
2022-11-29T17:26:24.979Z,102074.56
2022-11-29T17:29:46.762Z,102072.84
2022-11-29T17:33:08.222Z,102071.06
2022-11-29T17:36:30.610Z,102072.59
2022-11-29T17:39:53.928Z,102077.00
2022-11-29T17:43:15.933Z,102085.84
2022-11-29T17:46:37.950Z,102087.66
2022-11-29T17:49:59.944Z,102086.78
2022-11-29T17:53:21.583Z,102086.84
2022-11-29T17:56:44.714Z,102085.13
2022-11-29T18:00:08.873Z,102093.19
2022-11-29T18:03:30.064Z,102083.66
2022-11-29T18:06:51.946Z,102078.34
2022-11-29T18:10:13.916Z,102092.50
2022-11-29T18:13:37.355Z,102086.41
2022-11-29T18:16:59.172Z,102095.25
2022-11-29T18:20:20.762Z,102090.06
2022-11-29T18:23:43.877Z,102095.34
2022-11-29T18:27:05.596Z,102094.47
2022-11-29T18:30:29.065Z,102098.03
2022-11-29T18:33:54.078Z,102098.94
2022-11-29T18:37:27.560Z,102104.44
2022-11-29T18:40:59.299Z,102101.84
2022-11-29T18:44:24.259Z,102110.66
2022-11-29T18:47:47.586Z,102108.00
2022-11-29T18:51:11.919Z,102102.78
2022-11-29T18:54:33.794Z,102108.06
2022-11-29T18:57:55.763Z,102102.81
2022-11-29T19:01:19.764Z,102108.97
2022-11-29T19:04:43.031Z,102117.69
2022-11-29T19:08:04.647Z,102106.25
2022-11-29T19:11:28.119Z,102112.47
2022-11-29T19:14:50.384Z,102122.09
2022-11-29T19:18:12.846Z,102113.16
2022-11-29T19:21:36.390Z,102121.00
2022-11-29T19:24:58.304Z,102121.00
2022-11-29T19:28:20.285Z,102118.38
2022-11-29T19:31:42.613Z,102124.56
2022-11-29T19:35:05.034Z,102131.56
2022-11-29T19:38:28.122Z,102130.72
2022-11-29T19:41:49.705Z,102125.44
2022-11-29T19:45:18.892Z,102124.66
2022-11-29T19:48:40.903Z,102122.94
2022-11-29T19:52:02.935Z,102128.22
2022-11-29T19:55:26.882Z,102122.97
2022-11-29T19:58:49.008Z,102124.75
2022-11-29T20:02:11.814Z,102134.41
2022-11-29T20:05:33.658Z,102136.19
2022-11-29T20:08:55.978Z,102139.75
2022-11-29T20:12:19.146Z,102135.38
2022-11-29T20:15:41.183Z,102141.50
2022-11-29T20:19:03.353Z,102150.34
2022-11-29T20:22:25.042Z,102150.34
2022-11-29T20:25:49.976Z,102140.72
2022-11-29T20:29:14.227Z,102143.44
2022-11-29T20:32:36.556Z,102150.47
2022-11-29T20:36:13.566Z,102160.19
2022-11-29T20:39:44.692Z,102147.13
2022-11-29T20:43:14.340Z,102143.59
2022-11-29T20:46:39.929Z,102148.84
2022-11-29T20:50:01.872Z,102150.69
2022-11-29T20:53:33.153Z,102149.81
2022-11-29T20:56:54.982Z,102151.59
2022-11-29T21:00:18.320Z,102153.44
2022-11-29T21:03:41.612Z,102158.66
2022-11-29T21:07:03.446Z,102160.44
2022-11-29T21:10:25.238Z,102163.13
2022-11-29T21:13:48.157Z,102163.13
2022-11-29T21:17:10.660Z,102164.03
2022-11-29T21:20:34.530Z,102174.56
2022-11-29T21:24:04.732Z,102173.75
2022-11-29T21:27:31.550Z,102179.88
2022-11-29T21:30:54.001Z,102172.97
2022-11-29T21:34:15.993Z,102175.59
2022-11-29T21:37:39.263Z,102183.56
2022-11-29T21:41:00.994Z,102178.31
2022-11-29T21:44:22.528Z,102183.53
2022-11-29T21:47:45.118Z,102193.22
2022-11-29T21:51:07.946Z,102191.50
2022-11-29T21:54:31.402Z,102189.75
2022-11-29T21:57:53.264Z,102187.97
2022-11-29T22:01:17.383Z,102190.63
2022-11-29T22:04:38.946Z,102195.88
2022-11-29T22:08:00.933Z,102192.44
2022-11-29T22:11:35.519Z,102191.59
2022-11-29T22:14:57.423Z,102190.63
2022-11-29T22:18:18.954Z,102188.03
2022-11-29T22:21:41.323Z,102191.53
2022-11-29T22:25:03.050Z,102201.28
2022-11-29T22:28:26.482Z,102193.38
2022-11-29T22:31:50.262Z,102193.44
2022-11-29T22:35:11.805Z,102194.28
2022-11-29T22:38:33.368Z,102196.09
2022-11-29T22:41:55.431Z,102193.50
2022-11-29T22:45:18.523Z,102195.28
2022-11-29T22:48:41.834Z,102198.09
2022-11-29T22:52:03.444Z,102193.69
2022-11-29T22:55:24.857Z,102198.97
2022-11-29T22:58:46.874Z,102200.69
2022-11-29T23:02:10.080Z,102195.31
2022-11-29T23:05:34.044Z,102202.41
2022-11-29T23:08:57.807Z,102199.69
2022-11-29T23:12:20.798Z,102200.69
2022-11-29T23:15:42.839Z,102203.31
2022-11-29T23:19:06.371Z,102202.56
2022-11-29T23:22:27.987Z,102193.84
2022-11-29T23:25:50.698Z,102212.31
2022-11-29T23:29:15.513Z,102203.56
2022-11-29T23:32:37.286Z,102207.97
2022-11-29T23:36:06.432Z,102210.59
2022-11-29T23:39:27.842Z,102209.69
2022-11-29T23:42:52.035Z,102216.78
2022-11-29T23:46:16.047Z,102216.75
2022-11-29T23:49:39.820Z,102216.75
2022-11-29T23:53:03.220Z,102212.28
2022-11-29T23:56:24.804Z,102205.31
2022-11-29T23:59:46.555Z,102210.59
